sensor_id;sensor_type;location;lat;lon;timestamp;P1;durP1;ratioP1;P2;durP2;ratioP2
38581;SDS011;24349;53.720;10.014;2022-07-01T00:01:24;9.80;;;8.80;;
38581;SDS011;24349;53.720;10.014;2022-07-01T00:03:49;11.73;;;8.70;;
38581;SDS011;24349;53.720;10.014;2022-07-01T00:06:16;10.90;;;8.63;;
38581;SDS011;24349;53.720;10.014;2022-07-01T00:08:42;9.45;;;8.10;;
38581;SDS011;24349;53.720;10.014;2022-07-01T00:11:09;8.32;;;7.45;;
38581;SDS011;24349;53.720;10.014;2022-07-01T00:13:34;13.68;;;8.82;;
38581;SDS011;24349;53.720;10.014;2022-07-01T00:16:00;12.88;;;7.45;;
38581;SDS011;24349;53.720;10.014;2022-07-01T00:18:26;10.30;;;7.60;;
38581;SDS011;24349;53.720;10.014;2022-07-01T00:20:52;11.27;;;7.85;;
38581;SDS011;24349;53.720;10.014;2022-07-01T00:23:18;8.52;;;5.72;;
38581;SDS011;24349;53.720;10.014;2022-07-01T00:25:44;9.38;;;5.60;;
38581;SDS011;24349;53.720;10.014;2022-07-01T00:28:10;8.40;;;5.30;;
38581;SDS011;24349;53.720;10.014;2022-07-01T00:30:36;8.73;;;5.53;;
38581;SDS011;24349;53.720;10.014;2022-07-01T00:33:02;7.63;;;4.50;;
38581;SDS011;24349;53.720;10.014;2022-07-01T00:35:28;6.90;;;4.38;;
38581;SDS011;24349;53.720;10.014;2022-07-01T00:37:54;7.97;;;4.13;;
38581;SDS011;24349;53.720;10.014;2022-07-01T00:40:20;9.63;;;4.70;;
38581;SDS011;24349;53.720;10.014;2022-07-01T00:42:46;8.10;;;4.18;;
38581;SDS011;24349;53.720;10.014;2022-07-01T00:45:12;6.80;;;4.20;;
38581;SDS011;24349;53.720;10.014;2022-07-01T00:47:38;9.90;;;3.55;;
38581;SDS011;24349;53.720;10.014;2022-07-01T00:50:09;8.15;;;3.80;;
38581;SDS011;24349;53.720;10.014;2022-07-01T00:52:36;8.77;;;4.13;;
38581;SDS011;24349;53.720;10.014;2022-07-01T00:55:04;7.15;;;3.75;;
38581;SDS011;24349;53.720;10.014;2022-07-01T00:57:37;5.45;;;3.03;;
38581;SDS011;24349;53.720;10.014;2022-07-01T01:00:13;5.75;;;3.30;;
38581;SDS011;24349;53.720;10.014;2022-07-01T01:02:49;6.55;;;3.03;;
38581;SDS011;24349;53.720;10.014;2022-07-01T01:05:15;5.18;;;2.88;;
38581;SDS011;24349;53.720;10.014;2022-07-01T01:07:43;6.18;;;3.13;;
38581;SDS011;24349;53.720;10.014;2022-07-01T01:10:09;5.47;;;3.28;;
38581;SDS011;24349;53.720;10.014;2022-07-01T01:12:35;4.97;;;2.90;;
38581;SDS011;24349;53.720;10.014;2022-07-01T01:15:01;5.30;;;2.97;;
38581;SDS011;24349;53.720;10.014;2022-07-01T01:17:27;5.28;;;2.53;;
38581;SDS011;24349;53.720;10.014;2022-07-01T01:19:52;6.30;;;3.15;;
38581;SDS011;24349;53.720;10.014;2022-07-01T01:22:21;6.25;;;3.90;;
38581;SDS011;24349;53.720;10.014;2022-07-01T01:24:47;5.43;;;3.08;;
38581;SDS011;24349;53.720;10.014;2022-07-01T01:27:13;5.47;;;2.90;;
38581;SDS011;24349;53.720;10.014;2022-07-01T01:29:39;5.60;;;3.80;;
38581;SDS011;24349;53.720;10.014;2022-07-01T01:32:06;7.55;;;3.67;;
38581;SDS011;24349;53.720;10.014;2022-07-01T01:34:35;5.68;;;2.80;;
38581;SDS011;24349;53.720;10.014;2022-07-01T01:37:03;5.53;;;2.80;;
38581;SDS011;24349;53.720;10.014;2022-07-01T01:39:30;6.35;;;3.70;;
38581;SDS011;24349;53.720;10.014;2022-07-01T01:41:56;4.68;;;2.30;;
38581;SDS011;24349;53.720;10.014;2022-07-01T01:44:22;6.03;;;2.95;;
38581;SDS011;24349;53.720;10.014;2022-07-01T01:46:48;6.50;;;3.03;;
38581;SDS011;24349;53.720;10.014;2022-07-01T01:49:13;5.97;;;3.28;;
38581;SDS011;24349;53.720;10.014;2022-07-01T01:51:39;5.45;;;2.67;;
38581;SDS011;24349;53.720;10.014;2022-07-01T01:54:05;4.80;;;2.70;;
38581;SDS011;24349;53.720;10.014;2022-07-01T01:56:31;6.68;;;3.95;;
38581;SDS011;24349;53.720;10.014;2022-07-01T01:58:58;7.40;;;3.97;;
38581;SDS011;24349;53.720;10.014;2022-07-01T02:01:24;5.50;;;3.20;;
38581;SDS011;24349;53.720;10.014;2022-07-01T02:03:50;5.80;;;3.53;;
38581;SDS011;24349;53.720;10.014;2022-07-01T02:06:17;4.93;;;2.92;;
38581;SDS011;24349;53.720;10.014;2022-07-01T02:08:44;5.35;;;3.60;;
38581;SDS011;24349;53.720;10.014;2022-07-01T02:11:10;6.57;;;4.00;;
38581;SDS011;24349;53.720;10.014;2022-07-01T02:13:36;8.75;;;3.90;;
38581;SDS011;24349;53.720;10.014;2022-07-01T02:16:03;5.88;;;3.63;;
38581;SDS011;24349;53.720;10.014;2022-07-01T02:18:29;6.50;;;4.90;;
38581;SDS011;24349;53.720;10.014;2022-07-01T02:20:57;5.88;;;3.40;;
38581;SDS011;24349;53.720;10.014;2022-07-01T02:23:23;6.65;;;3.75;;
38581;SDS011;24349;53.720;10.014;2022-07-01T02:25:49;7.13;;;4.13;;
38581;SDS011;24349;53.720;10.014;2022-07-01T02:28:15;6.38;;;3.45;;
38581;SDS011;24349;53.720;10.014;2022-07-01T02:30:41;9.07;;;5.47;;
38581;SDS011;24349;53.720;10.014;2022-07-01T02:33:07;4.85;;;3.42;;
38581;SDS011;24349;53.720;10.014;2022-07-01T02:35:34;6.35;;;3.90;;
38581;SDS011;24349;53.720;10.014;2022-07-01T02:38:02;7.07;;;5.40;;
38581;SDS011;24349;53.720;10.014;2022-07-01T02:40:28;8.15;;;4.13;;
38581;SDS011;24349;53.720;10.014;2022-07-01T02:42:54;6.18;;;3.70;;
38581;SDS011;24349;53.720;10.014;2022-07-01T02:45:20;6.00;;;4.20;;
38581;SDS011;24349;53.720;10.014;2022-07-01T02:47:46;9.35;;;4.75;;
38581;SDS011;24349;53.720;10.014;2022-07-01T02:50:12;8.20;;;4.03;;
38581;SDS011;24349;53.720;10.014;2022-07-01T02:52:39;5.65;;;3.55;;
38581;SDS011;24349;53.720;10.014;2022-07-01T02:55:08;5.43;;;3.88;;
38581;SDS011;24349;53.720;10.014;2022-07-01T02:57:35;7.72;;;5.30;;
38581;SDS011;24349;53.720;10.014;2022-07-01T03:00:02;6.25;;;3.88;;
38581;SDS011;24349;53.720;10.014;2022-07-01T03:02:31;8.05;;;6.10;;
38581;SDS011;24349;53.720;10.014;2022-07-01T03:04:57;5.47;;;3.95;;
38581;SDS011;24349;53.720;10.014;2022-07-01T03:07:23;5.40;;;3.80;;
38581;SDS011;24349;53.720;10.014;2022-07-01T03:09:49;6.40;;;3.67;;
38581;SDS011;24349;53.720;10.014;2022-07-01T03:12:15;6.07;;;4.38;;
38581;SDS011;24349;53.720;10.014;2022-07-01T03:14:51;6.45;;;4.25;;
38581;SDS011;24349;53.720;10.014;2022-07-01T03:17:20;8.50;;;5.47;;
38581;SDS011;24349;53.720;10.014;2022-07-01T03:19:47;7.20;;;4.70;;
38581;SDS011;24349;53.720;10.014;2022-07-01T03:22:13;6.38;;;4.20;;
38581;SDS011;24349;53.720;10.014;2022-07-01T03:24:39;7.80;;;6.32;;
38581;SDS011;24349;53.720;10.014;2022-07-01T03:27:05;6.78;;;5.22;;
38581;SDS011;24349;53.720;10.014;2022-07-01T03:29:31;8.95;;;6.28;;
38581;SDS011;24349;53.720;10.014;2022-07-01T03:31:56;8.75;;;5.97;;
38581;SDS011;24349;53.720;10.014;2022-07-01T03:34:22;8.25;;;5.10;;
38581;SDS011;24349;53.720;10.014;2022-07-01T03:36:48;8.07;;;5.65;;
38581;SDS011;24349;53.720;10.014;2022-07-01T03:39:13;10.90;;;8.27;;
38581;SDS011;24349;53.720;10.014;2022-07-01T03:41:39;10.98;;;8.00;;
38581;SDS011;24349;53.720;10.014;2022-07-01T03:44:05;8.57;;;6.05;;
38581;SDS011;24349;53.720;10.014;2022-07-01T03:46:33;9.77;;;5.85;;
38581;SDS011;24349;53.720;10.014;2022-07-01T03:49:00;9.55;;;6.85;;
38581;SDS011;24349;53.720;10.014;2022-07-01T03:51:26;8.98;;;5.55;;
38581;SDS011;24349;53.720;10.014;2022-07-01T03:53:52;8.65;;;5.43;;
38581;SDS011;24349;53.720;10.014;2022-07-01T03:56:36;11.23;;;8.27;;
38581;SDS011;24349;53.720;10.014;2022-07-01T03:59:02;10.60;;;7.47;;
38581;SDS011;24349;53.720;10.014;2022-07-01T04:01:27;8.85;;;7.95;;
38581;SDS011;24349;53.720;10.014;2022-07-01T04:03:53;10.50;;;8.07;;
38581;SDS011;24349;53.720;10.014;2022-07-01T04:06:19;10.10;;;9.02;;
38581;SDS011;24349;53.720;10.014;2022-07-01T04:08:45;11.40;;;8.82;;
38581;SDS011;24349;53.720;10.014;2022-07-01T04:11:12;13.07;;;10.05;;
38581;SDS011;24349;53.720;10.014;2022-07-01T04:13:39;12.35;;;8.70;;
38581;SDS011;24349;53.720;10.014;2022-07-01T04:16:05;11.05;;;9.57;;
38581;SDS011;24349;53.720;10.014;2022-07-01T04:18:31;11.35;;;9.98;;
38581;SDS011;24349;53.720;10.014;2022-07-01T04:20:57;10.65;;;8.98;;
38581;SDS011;24349;53.720;10.014;2022-07-01T04:23:42;9.93;;;7.70;;
38581;SDS011;24349;53.720;10.014;2022-07-01T04:26:08;14.98;;;10.52;;
38581;SDS011;24349;53.720;10.014;2022-07-01T04:28:34;22.00;;;19.02;;
38581;SDS011;24349;53.720;10.014;2022-07-01T04:31:00;13.68;;;9.57;;
38581;SDS011;24349;53.720;10.014;2022-07-01T04:33:26;11.77;;;8.95;;
38581;SDS011;24349;53.720;10.014;2022-07-01T04:35:51;9.77;;;7.65;;
38581;SDS011;24349;53.720;10.014;2022-07-01T04:38:17;10.20;;;7.70;;
38581;SDS011;24349;53.720;10.014;2022-07-01T04:40:43;11.73;;;10.35;;
38581;SDS011;24349;53.720;10.014;2022-07-01T04:43:29;10.70;;;8.30;;
38581;SDS011;24349;53.720;10.014;2022-07-01T04:45:54;10.45;;;8.57;;
38581;SDS011;24349;53.720;10.014;2022-07-01T04:48:20;9.93;;;8.15;;
38581;SDS011;24349;53.720;10.014;2022-07-01T04:50:46;15.98;;;13.68;;
38581;SDS011;24349;53.720;10.014;2022-07-01T04:53:12;16.67;;;13.98;;
38581;SDS011;24349;53.720;10.014;2022-07-01T04:55:38;12.63;;;9.73;;
38581;SDS011;24349;53.720;10.014;2022-07-01T04:58:04;13.60;;;10.88;;
38581;SDS011;24349;53.720;10.014;2022-07-01T05:00:30;12.85;;;10.48;;
38581;SDS011;24349;53.720;10.014;2022-07-01T05:02:55;14.43;;;11.75;;
38581;SDS011;24349;53.720;10.014;2022-07-01T05:05:21;12.23;;;9.38;;
38581;SDS011;24349;53.720;10.014;2022-07-01T05:07:47;12.50;;;10.38;;
38581;SDS011;24349;53.720;10.014;2022-07-01T05:10:13;12.32;;;10.93;;
38581;SDS011;24349;53.720;10.014;2022-07-01T05:12:39;12.93;;;9.48;;
38581;SDS011;24349;53.720;10.014;2022-07-01T05:15:05;18.40;;;14.30;;
38581;SDS011;24349;53.720;10.014;2022-07-01T05:17:32;19.38;;;12.95;;
38581;SDS011;24349;53.720;10.014;2022-07-01T05:20:17;16.55;;;10.65;;
38581;SDS011;24349;53.720;10.014;2022-07-01T05:23:01;18.42;;;11.40;;
38581;SDS011;24349;53.720;10.014;2022-07-01T05:25:27;18.00;;;11.02;;
38581;SDS011;24349;53.720;10.014;2022-07-01T05:27:53;17.13;;;11.40;;
38581;SDS011;24349;53.720;10.014;2022-07-01T05:30:19;12.38;;;4.93;;
38581;SDS011;24349;53.720;10.014;2022-07-01T05:32:48;9.85;;;4.38;;
38581;SDS011;24349;53.720;10.014;2022-07-01T05:35:13;13.23;;;5.00;;
38581;SDS011;24349;53.720;10.014;2022-07-01T05:37:40;11.48;;;4.63;;
38581;SDS011;24349;53.720;10.014;2022-07-01T05:40:06;11.50;;;5.40;;
38581;SDS011;24349;53.720;10.014;2022-07-01T05:42:32;10.73;;;3.92;;
38581;SDS011;24349;53.720;10.014;2022-07-01T05:44:58;14.50;;;5.05;;
38581;SDS011;24349;53.720;10.014;2022-07-01T05:47:24;10.13;;;4.00;;
38581;SDS011;24349;53.720;10.014;2022-07-01T05:49:49;9.32;;;3.60;;
38581;SDS011;24349;53.720;10.014;2022-07-01T05:52:15;10.70;;;4.28;;
38581;SDS011;24349;53.720;10.014;2022-07-01T05:54:41;11.57;;;3.72;;
38581;SDS011;24349;53.720;10.014;2022-07-01T05:57:07;11.27;;;3.97;;
38581;SDS011;24349;53.720;10.014;2022-07-01T05:59:32;11.60;;;3.83;;
38581;SDS011;24349;53.720;10.014;2022-07-01T06:01:58;9.10;;;2.97;;
38581;SDS011;24349;53.720;10.014;2022-07-01T06:04:24;10.57;;;3.50;;
38581;SDS011;24349;53.720;10.014;2022-07-01T06:06:49;7.47;;;2.45;;
38581;SDS011;24349;53.720;10.014;2022-07-01T06:09:15;7.85;;;3.08;;
38581;SDS011;24349;53.720;10.014;2022-07-01T06:11:41;9.00;;;2.45;;
38581;SDS011;24349;53.720;10.014;2022-07-01T06:14:06;6.65;;;1.90;;
38581;SDS011;24349;53.720;10.014;2022-07-01T06:16:32;9.98;;;2.47;;
38581;SDS011;24349;53.720;10.014;2022-07-01T06:18:58;7.22;;;2.22;;
38581;SDS011;24349;53.720;10.014;2022-07-01T06:21:24;7.18;;;2.53;;
38581;SDS011;24349;53.720;10.014;2022-07-01T06:23:50;7.07;;;2.33;;
38581;SDS011;24349;53.720;10.014;2022-07-01T06:26:15;7.35;;;2.55;;
38581;SDS011;24349;53.720;10.014;2022-07-01T06:28:41;7.20;;;2.80;;
38581;SDS011;24349;53.720;10.014;2022-07-01T06:31:07;7.43;;;2.00;;
38581;SDS011;24349;53.720;10.014;2022-07-01T06:33:33;9.02;;;2.72;;
38581;SDS011;24349;53.720;10.014;2022-07-01T06:35:58;5.40;;;2.20;;
38581;SDS011;24349;53.720;10.014;2022-07-01T06:38:24;5.38;;;2.20;;
38581;SDS011;24349;53.720;10.014;2022-07-01T06:40:50;8.13;;;2.42;;
38581;SDS011;24349;53.720;10.014;2022-07-01T06:43:35;6.82;;;2.20;;
38581;SDS011;24349;53.720;10.014;2022-07-01T06:46:01;8.15;;;2.33;;
38581;SDS011;24349;53.720;10.014;2022-07-01T06:48:27;8.32;;;2.53;;
38581;SDS011;24349;53.720;10.014;2022-07-01T06:50:53;5.82;;;2.00;;
38581;SDS011;24349;53.720;10.014;2022-07-01T06:53:19;5.97;;;1.98;;
38581;SDS011;24349;53.720;10.014;2022-07-01T06:55:44;7.47;;;2.88;;
38581;SDS011;24349;53.720;10.014;2022-07-01T06:58:10;7.07;;;2.08;;
38581;SDS011;24349;53.720;10.014;2022-07-01T07:00:36;7.50;;;2.75;;
38581;SDS011;24349;53.720;10.014;2022-07-01T07:03:02;6.65;;;2.38;;
38581;SDS011;24349;53.720;10.014;2022-07-01T07:05:28;5.72;;;2.13;;
38581;SDS011;24349;53.720;10.014;2022-07-01T07:07:56;9.10;;;3.35;;
38581;SDS011;24349;53.720;10.014;2022-07-01T07:10:22;8.45;;;2.50;;
38581;SDS011;24349;53.720;10.014;2022-07-01T07:12:47;8.93;;;3.35;;
38581;SDS011;24349;53.720;10.014;2022-07-01T07:15:13;9.10;;;2.55;;
38581;SDS011;24349;53.720;10.014;2022-07-01T07:17:39;6.13;;;2.72;;
38581;SDS011;24349;53.720;10.014;2022-07-01T07:20:05;4.78;;;2.00;;
38581;SDS011;24349;53.720;10.014;2022-07-01T07:22:31;5.25;;;2.20;;
38581;SDS011;24349;53.720;10.014;2022-07-01T07:24:56;8.02;;;2.40;;
38581;SDS011;24349;53.720;10.014;2022-07-01T07:27:22;5.90;;;2.30;;
38581;SDS011;24349;53.720;10.014;2022-07-01T07:29:48;5.50;;;1.83;;
38581;SDS011;24349;53.720;10.014;2022-07-01T07:32:13;5.97;;;2.05;;
38581;SDS011;24349;53.720;10.014;2022-07-01T07:34:39;7.97;;;2.72;;
38581;SDS011;24349;53.720;10.014;2022-07-01T07:37:05;5.53;;;2.40;;
38581;SDS011;24349;53.720;10.014;2022-07-01T07:39:31;4.53;;;1.80;;
38581;SDS011;24349;53.720;10.014;2022-07-01T07:41:57;9.00;;;3.45;;
38581;SDS011;24349;53.720;10.014;2022-07-01T07:44:22;7.35;;;2.97;;
38581;SDS011;24349;53.720;10.014;2022-07-01T07:46:48;6.15;;;2.50;;
38581;SDS011;24349;53.720;10.014;2022-07-01T07:49:15;6.70;;;2.65;;
38581;SDS011;24349;53.720;10.014;2022-07-01T07:51:40;6.65;;;2.40;;
38581;SDS011;24349;53.720;10.014;2022-07-01T07:54:06;7.45;;;3.20;;
38581;SDS011;24349;53.720;10.014;2022-07-01T07:56:32;5.25;;;2.85;;
38581;SDS011;24349;53.720;10.014;2022-07-01T07:58:57;7.25;;;2.80;;
38581;SDS011;24349;53.720;10.014;2022-07-01T08:01:23;7.68;;;3.08;;
38581;SDS011;24349;53.720;10.014;2022-07-01T08:03:49;6.88;;;3.28;;
38581;SDS011;24349;53.720;10.014;2022-07-01T08:06:15;7.28;;;2.50;;
38581;SDS011;24349;53.720;10.014;2022-07-01T08:08:40;6.53;;;2.80;;
38581;SDS011;24349;53.720;10.014;2022-07-01T08:11:06;5.70;;;3.08;;
38581;SDS011;24349;53.720;10.014;2022-07-01T08:13:32;4.97;;;2.80;;
38581;SDS011;24349;53.720;10.014;2022-07-01T08:15:57;8.00;;;3.92;;
38581;SDS011;24349;53.720;10.014;2022-07-01T08:18:23;6.53;;;3.25;;
38581;SDS011;24349;53.720;10.014;2022-07-01T08:20:49;4.95;;;2.88;;
38581;SDS011;24349;53.720;10.014;2022-07-01T08:23:19;5.97;;;2.90;;
38581;SDS011;24349;53.720;10.014;2022-07-01T08:25:45;6.18;;;3.63;;
38581;SDS011;24349;53.720;10.014;2022-07-01T08:28:11;5.90;;;3.60;;
38581;SDS011;24349;53.720;10.014;2022-07-01T08:30:37;5.65;;;3.92;;
38581;SDS011;24349;53.720;10.014;2022-07-01T08:33:03;7.22;;;3.88;;
38581;SDS011;24349;53.720;10.014;2022-07-01T08:35:29;6.38;;;4.90;;
38581;SDS011;24349;53.720;10.014;2022-07-01T08:37:55;7.07;;;3.80;;
38581;SDS011;24349;53.720;10.014;2022-07-01T08:40:27;8.07;;;3.80;;
38581;SDS011;24349;53.720;10.014;2022-07-01T08:42:55;8.13;;;3.63;;
38581;SDS011;24349;53.720;10.014;2022-07-01T08:45:26;6.07;;;3.78;;
38581;SDS011;24349;53.720;10.014;2022-07-01T08:47:53;6.03;;;4.05;;
38581;SDS011;24349;53.720;10.014;2022-07-01T08:50:25;7.32;;;4.15;;
38581;SDS011;24349;53.720;10.014;2022-07-01T08:52:52;6.35;;;4.75;;
38581;SDS011;24349;53.720;10.014;2022-07-01T08:55:19;7.05;;;4.25;;
38581;SDS011;24349;53.720;10.014;2022-07-01T08:57:45;6.63;;;4.45;;
38581;SDS011;24349;53.720;10.014;2022-07-01T09:00:11;9.70;;;6.78;;
38581;SDS011;24349;53.720;10.014;2022-07-01T09:05:26;9.38;;;5.25;;
38581;SDS011;24349;53.720;10.014;2022-07-01T09:08:01;8.15;;;4.95;;
38581;SDS011;24349;53.720;10.014;2022-07-01T09:10:30;5.78;;;4.78;;
38581;SDS011;24349;53.720;10.014;2022-07-01T09:13:05;5.53;;;4.53;;
38581;SDS011;24349;53.720;10.014;2022-07-01T09:15:32;8.98;;;4.50;;
38581;SDS011;24349;53.720;10.014;2022-07-01T09:18:17;7.45;;;6.43;;
38581;SDS011;24349;53.720;10.014;2022-07-01T09:20:46;8.60;;;6.18;;
38581;SDS011;24349;53.720;10.014;2022-07-01T09:23:16;10.80;;;6.85;;
38581;SDS011;24349;53.720;10.014;2022-07-01T09:28:11;8.27;;;5.40;;
38581;SDS011;24349;53.720;10.014;2022-07-01T09:30:39;8.05;;;5.53;;
38581;SDS011;24349;53.720;10.014;2022-07-01T09:35:36;6.88;;;5.80;;
38581;SDS011;24349;53.720;10.014;2022-07-01T09:38:03;7.63;;;5.32;;
38581;SDS011;24349;53.720;10.014;2022-07-01T09:41:13;6.97;;;5.40;;
38581;SDS011;24349;53.720;10.014;2022-07-01T09:43:26;8.60;;;5.90;;
38581;SDS011;24349;53.720;10.014;2022-07-01T09:46:00;7.57;;;6.38;;
38581;SDS011;24349;53.720;10.014;2022-07-01T09:51:02;9.65;;;7.85;;
38581;SDS011;24349;53.720;10.014;2022-07-01T09:53:30;6.25;;;4.45;;
38581;SDS011;24349;53.720;10.014;2022-07-01T09:55:57;6.68;;;4.82;;
38581;SDS011;24349;53.720;10.014;2022-07-01T09:58:23;8.70;;;5.32;;
38581;SDS011;24349;53.720;10.014;2022-07-01T10:00:49;7.15;;;5.68;;
38581;SDS011;24349;53.720;10.014;2022-07-01T10:03:18;8.43;;;5.85;;
38581;SDS011;24349;53.720;10.014;2022-07-01T10:13:31;7.85;;;4.90;;
38581;SDS011;24349;53.720;10.014;2022-07-01T10:15:59;8.50;;;6.18;;
38581;SDS011;24349;53.720;10.014;2022-07-01T10:18:28;6.60;;;3.90;;
38581;SDS011;24349;53.720;10.014;2022-07-01T10:20:55;7.45;;;4.53;;
38581;SDS011;24349;53.720;10.014;2022-07-01T10:23:23;6.22;;;3.70;;
38581;SDS011;24349;53.720;10.014;2022-07-01T10:25:53;6.10;;;4.20;;
38581;SDS011;24349;53.720;10.014;2022-07-01T10:28:27;5.95;;;4.22;;
38581;SDS011;24349;53.720;10.014;2022-07-01T10:30:59;6.20;;;3.55;;
38581;SDS011;24349;53.720;10.014;2022-07-01T10:36:06;7.47;;;4.63;;
38581;SDS011;24349;53.720;10.014;2022-07-01T10:38:32;7.80;;;4.78;;
38581;SDS011;24349;53.720;10.014;2022-07-01T10:40:58;5.85;;;3.78;;
38581;SDS011;24349;53.720;10.014;2022-07-01T10:43:35;5.82;;;4.30;;
38581;SDS011;24349;53.720;10.014;2022-07-01T10:46:02;7.03;;;4.47;;
38581;SDS011;24349;53.720;10.014;2022-07-01T10:48:33;7.22;;;4.70;;
38581;SDS011;24349;53.720;10.014;2022-07-01T10:50:59;7.22;;;5.47;;
38581;SDS011;24349;53.720;10.014;2022-07-01T10:53:30;6.70;;;4.30;;
38581;SDS011;24349;53.720;10.014;2022-07-01T10:56:15;6.78;;;4.60;;
38581;SDS011;24349;53.720;10.014;2022-07-01T10:58:42;6.82;;;4.50;;
38581;SDS011;24349;53.720;10.014;2022-07-01T11:01:08;7.78;;;5.65;;
38581;SDS011;24349;53.720;10.014;2022-07-01T11:03:34;10.18;;;7.32;;
38581;SDS011;24349;53.720;10.014;2022-07-01T11:06:01;9.52;;;6.40;;
38581;SDS011;24349;53.720;10.014;2022-07-01T11:08:27;7.53;;;6.15;;
38581;SDS011;24349;53.720;10.014;2022-07-01T11:10:54;11.30;;;7.53;;
38581;SDS011;24349;53.720;10.014;2022-07-01T11:13:22;9.75;;;7.25;;
38581;SDS011;24349;53.720;10.014;2022-07-01T11:15:49;10.73;;;8.98;;
38581;SDS011;24349;53.720;10.014;2022-07-01T11:18:15;12.35;;;8.90;;
38581;SDS011;24349;53.720;10.014;2022-07-01T11:20:42;8.57;;;6.82;;
38581;SDS011;24349;53.720;10.014;2022-07-01T11:23:08;12.68;;;7.20;;
38581;SDS011;24349;53.720;10.014;2022-07-01T11:25:33;11.32;;;8.98;;
38581;SDS011;24349;53.720;10.014;2022-07-01T11:27:59;12.48;;;10.18;;
38581;SDS011;24349;53.720;10.014;2022-07-01T11:30:25;11.80;;;9.55;;
38581;SDS011;24349;53.720;10.014;2022-07-01T11:32:53;10.35;;;8.13;;
38581;SDS011;24349;53.720;10.014;2022-07-01T11:35:30;10.63;;;8.23;;
38581;SDS011;24349;53.720;10.014;2022-07-01T11:41:05;9.23;;;8.20;;
38581;SDS011;24349;53.720;10.014;2022-07-01T11:43:42;11.50;;;9.18;;
38581;SDS011;24349;53.720;10.014;2022-07-01T11:46:07;9.93;;;7.90;;
38581;SDS011;24349;53.720;10.014;2022-07-01T11:48:38;9.55;;;7.95;;
38581;SDS011;24349;53.720;10.014;2022-07-01T11:51:10;10.35;;;8.95;;
38581;SDS011;24349;53.720;10.014;2022-07-01T11:53:37;10.07;;;9.07;;
38581;SDS011;24349;53.720;10.014;2022-07-01T11:56:07;9.88;;;7.95;;
38581;SDS011;24349;53.720;10.014;2022-07-01T11:58:51;10.63;;;8.82;;
38581;SDS011;24349;53.720;10.014;2022-07-01T12:03:46;10.45;;;7.38;;
38581;SDS011;24349;53.720;10.014;2022-07-01T12:06:12;10.02;;;8.35;;
38581;SDS011;24349;53.720;10.014;2022-07-01T12:08:38;10.20;;;9.13;;
38581;SDS011;24349;53.720;10.014;2022-07-01T12:11:05;12.85;;;9.38;;
38581;SDS011;24349;53.720;10.014;2022-07-01T12:13:34;8.70;;;7.10;;
38581;SDS011;24349;53.720;10.014;2022-07-01T12:16:08;10.90;;;8.77;;
38581;SDS011;24349;53.720;10.014;2022-07-01T12:18:34;9.65;;;7.50;;
38581;SDS011;24349;53.720;10.014;2022-07-01T12:21:00;8.82;;;6.20;;
38581;SDS011;24349;53.720;10.014;2022-07-01T12:23:26;10.48;;;7.55;;
38581;SDS011;24349;53.720;10.014;2022-07-01T12:25:52;9.77;;;7.28;;
38581;SDS011;24349;53.720;10.014;2022-07-01T12:28:29;10.20;;;6.90;;
38581;SDS011;24349;53.720;10.014;2022-07-01T12:31:07;8.60;;;6.40;;
38581;SDS011;24349;53.720;10.014;2022-07-01T12:33:37;9.90;;;7.50;;
38581;SDS011;24349;53.720;10.014;2022-07-01T12:36:05;7.65;;;5.90;;
38581;SDS011;24349;53.720;10.014;2022-07-01T12:38:32;9.38;;;6.20;;
38581;SDS011;24349;53.720;10.014;2022-07-01T12:40:58;11.57;;;7.78;;
38581;SDS011;24349;53.720;10.014;2022-07-01T12:43:25;8.80;;;5.72;;
38581;SDS011;24349;53.720;10.014;2022-07-01T12:45:54;6.80;;;5.10;;
38581;SDS011;24349;53.720;10.014;2022-07-01T12:48:24;9.00;;;6.50;;
38581;SDS011;24349;53.720;10.014;2022-07-01T12:50:52;9.40;;;6.07;;
38581;SDS011;24349;53.720;10.014;2022-07-01T12:53:20;8.25;;;5.28;;
38581;SDS011;24349;53.720;10.014;2022-07-01T12:55:49;9.73;;;7.05;;
38581;SDS011;24349;53.720;10.014;2022-07-01T12:58:20;7.47;;;5.93;;
38581;SDS011;24349;53.720;10.014;2022-07-01T13:00:49;6.90;;;5.10;;
38581;SDS011;24349;53.720;10.014;2022-07-01T13:03:22;10.68;;;6.50;;
38581;SDS011;24349;53.720;10.014;2022-07-01T13:05:53;9.52;;;6.97;;
38581;SDS011;24349;53.720;10.014;2022-07-01T13:08:19;7.93;;;5.43;;
38581;SDS011;24349;53.720;10.014;2022-07-01T13:10:46;8.45;;;6.32;;
38581;SDS011;24349;53.720;10.014;2022-07-01T13:13:13;11.35;;;6.63;;
38581;SDS011;24349;53.720;10.014;2022-07-01T13:15:40;10.63;;;7.25;;
38581;SDS011;24349;53.720;10.014;2022-07-01T13:18:06;8.70;;;6.10;;
38581;SDS011;24349;53.720;10.014;2022-07-01T13:20:32;10.57;;;7.20;;
38581;SDS011;24349;53.720;10.014;2022-07-01T13:22:58;9.50;;;5.72;;
38581;SDS011;24349;53.720;10.014;2022-07-01T13:25:24;8.90;;;6.10;;
38581;SDS011;24349;53.720;10.014;2022-07-01T13:27:50;7.72;;;6.82;;
38581;SDS011;24349;53.720;10.014;2022-07-01T13:30:16;9.77;;;8.15;;
38581;SDS011;24349;53.720;10.014;2022-07-01T13:32:42;10.57;;;8.23;;
38581;SDS011;24349;53.720;10.014;2022-07-01T13:35:08;10.50;;;7.30;;
38581;SDS011;24349;53.720;10.014;2022-07-01T13:37:35;10.55;;;7.68;;
38581;SDS011;24349;53.720;10.014;2022-07-01T13:40:01;9.85;;;7.93;;
38581;SDS011;24349;53.720;10.014;2022-07-01T13:42:27;9.73;;;7.85;;
38581;SDS011;24349;53.720;10.014;2022-07-01T13:44:52;13.48;;;8.13;;
38581;SDS011;24349;53.720;10.014;2022-07-01T13:47:18;10.88;;;7.05;;
38581;SDS011;24349;53.720;10.014;2022-07-01T13:49:44;10.30;;;6.72;;
38581;SDS011;24349;53.720;10.014;2022-07-01T13:52:12;9.35;;;5.38;;
38581;SDS011;24349;53.720;10.014;2022-07-01T13:54:38;8.00;;;5.82;;
38581;SDS011;24349;53.720;10.014;2022-07-01T13:57:04;8.95;;;6.53;;
38581;SDS011;24349;53.720;10.014;2022-07-01T13:59:30;7.90;;;6.05;;
38581;SDS011;24349;53.720;10.014;2022-07-01T14:01:56;7.40;;;5.47;;
38581;SDS011;24349;53.720;10.014;2022-07-01T14:04:22;8.68;;;5.50;;
38581;SDS011;24349;53.720;10.014;2022-07-01T14:06:48;7.03;;;4.93;;
38581;SDS011;24349;53.720;10.014;2022-07-01T14:09:14;8.10;;;4.97;;
38581;SDS011;24349;53.720;10.014;2022-07-01T14:11:40;7.60;;;5.18;;
38581;SDS011;24349;53.720;10.014;2022-07-01T14:14:06;8.98;;;5.13;;
38581;SDS011;24349;53.720;10.014;2022-07-01T14:16:31;9.15;;;5.15;;
38581;SDS011;24349;53.720;10.014;2022-07-01T14:18:57;7.78;;;5.50;;
38581;SDS011;24349;53.720;10.014;2022-07-01T14:21:23;7.97;;;4.10;;
38581;SDS011;24349;53.720;10.014;2022-07-01T14:23:49;8.15;;;4.32;;
38581;SDS011;24349;53.720;10.014;2022-07-01T14:26:15;8.43;;;5.22;;
38581;SDS011;24349;53.720;10.014;2022-07-01T14:28:41;10.27;;;5.00;;
38581;SDS011;24349;53.720;10.014;2022-07-01T14:31:07;7.25;;;4.30;;
38581;SDS011;24349;53.720;10.014;2022-07-01T14:33:33;8.30;;;4.85;;
38581;SDS011;24349;53.720;10.014;2022-07-01T14:35:59;7.78;;;4.68;;
38581;SDS011;24349;53.720;10.014;2022-07-01T14:38:24;8.25;;;4.43;;
38581;SDS011;24349;53.720;10.014;2022-07-01T14:40:50;6.30;;;3.90;;
38581;SDS011;24349;53.720;10.014;2022-07-01T14:43:16;7.63;;;3.90;;
38581;SDS011;24349;53.720;10.014;2022-07-01T14:45:42;7.38;;;4.32;;
38581;SDS011;24349;53.720;10.014;2022-07-01T14:48:07;7.32;;;4.80;;
38581;SDS011;24349;53.720;10.014;2022-07-01T14:50:34;9.05;;;5.00;;
38581;SDS011;24349;53.720;10.014;2022-07-01T14:53:00;8.88;;;5.18;;
38581;SDS011;24349;53.720;10.014;2022-07-01T14:55:30;6.22;;;4.43;;
38581;SDS011;24349;53.720;10.014;2022-07-01T14:57:56;8.45;;;4.88;;